Time;durP1;ratioP1;P1;durP2;ratioP2;P2;SDS_P1;SDS_P2;PMS_P1;PMS_P2;Temp;Humidity;BMP_temperature;BMP_pressure;BME280_temperature;BME280_humidity;BME280_pressure;Samples;Min_cycle;Max_cycle;Signal;HPM_P1;HPM_P2
2022/06/18 00:01:00;;;;;;;4.47;4.27;;;;;;;15.61;100.00;97657.28;5040416;28;20476;-63
2022/06/18 00:03:28;;;;;;;4.27;4.07;;;;;;;15.46;100.00;97660.13;5043245;28;20312;-61
2022/06/18 00:05:58;;;;;;;5.60;4.17;;;;;;;15.39;100.00;97660.13;5028369;28;20231;-61
2022/06/18 00:08:30;;;;;;;5.23;4.93;;;;;;;15.35;100.00;97658.88;5046226;28;20234;-63
2022/06/18 00:13:39;;;;;;;5.57;5.17;;;;;;;15.30;100.00;97664.00;5043849;28;20629;-60
2022/06/18 00:13:48;;;;;;;4.47;4.23;;;;;;;15.21;100.00;97671.38;5010884;28;20354;-62
2022/06/18 00:16:22;;;;;;;4.80;4.40;;;;;;;15.13;100.00;97669.72;5042395;28;20203;-59
2022/06/18 00:18:50;;;;;;;7.67;7.10;;;;;;;15.08;100.00;97671.34;5041432;28;20209;-60
2022/06/18 00:21:21;;;;;;;5.67;5.23;;;;;;;15.01;100.00;97668.66;5030076;28;20229;-59
2022/06/18 00:23:50;;;;;;;5.00;4.60;;;;;;;15.02;100.00;97672.97;5039860;28;22469;-63
2022/06/18 00:26:19;;;;;;;5.67;5.27;;;;;;;14.98;100.00;97669.91;5026548;28;20206;-62
2022/06/18 00:28:47;;;;;;;5.80;5.40;;;;;;;14.97;100.00;97678.94;5010286;28;20202;-59
2022/06/18 00:31:15;;;;;;;4.77;4.47;;;;;;;15.09;100.00;97676.47;5045304;28;20199;-62
2022/06/18 00:33:43;;;;;;;4.80;4.50;;;;;;;14.93;100.00;97677.66;5047756;28;20236;-60
2022/06/18 00:36:15;;;;;;;4.90;4.50;;;;;;;14.86;100.00;97685.66;5028830;28;20319;-62
2022/06/18 00:38:45;;;;;;;4.70;4.40;;;;;;;14.79;100.00;97678.63;5046025;28;20203;-62
2022/06/18 00:41:17;;;;;;;5.33;4.87;;;;;;;14.69;100.00;97677.13;5044141;28;20321;-62
2022/06/18 00:43:50;;;;;;;5.53;4.87;;;;;;;14.69;100.00;97676.28;5003379;28;20852;-58
2022/06/18 00:46:23;;;;;;;5.37;5.07;;;;;;;14.70;100.00;97675.28;5042241;28;20195;-59
2022/06/18 00:48:57;;;;;;;5.47;5.17;;;;;;;14.73;100.00;97675.75;5043074;28;20199;-60
2022/06/18 00:51:27;;;;;;;5.90;5.50;;;;;;;14.60;100.00;97678.31;5026630;28;20195;-59
2022/06/18 00:54:02;;;;;;;5.00;4.70;;;;;;;14.53;100.00;97682.78;5044168;28;20247;-61
2022/06/18 00:56:54;;;;;;;5.07;4.77;;;;;;;14.52;100.00;97681.97;5040282;28;20253;-59
2022/06/18 00:59:29;;;;;;;5.07;4.77;;;;;;;14.43;100.00;97683.97;5001296;28;20628;-54
2022/06/18 01:01:58;;;;;;;4.97;4.60;;;;;;;14.46;100.00;97680.91;5040568;28;21100;-61
2022/06/18 01:04:30;;;;;;;4.97;4.67;;;;;;;14.33;100.00;97683.50;5048147;28;20233;-62
2022/06/18 01:07:03;;;;;;;3.87;3.67;;;;;;;14.20;100.00;97673.56;5021926;28;20294;-60
2022/06/18 01:09:32;;;;;;;5.20;4.90;;;;;;;14.14;100.00;97677.84;5040571;28;20275;-62
2022/06/18 01:12:02;;;;;;;4.80;4.50;;;;;;;14.14;100.00;97674.38;5038891;28;20725;-60
2022/06/18 01:14:31;;;;;;;4.80;4.50;;;;;;;14.07;100.00;97671.66;5005799;28;20313;-61
2022/06/18 01:17:01;;;;;;;7.40;6.80;;;;;;;14.04;100.00;97670.22;5038791;28;20278;-61
2022/06/18 01:19:32;;;;;;;6.47;5.97;;;;;;;13.99;100.00;97661.13;5047246;28;20207;-61
2022/06/18 01:22:07;;;;;;;5.50;5.20;;;;;;;14.04;100.00;97664.03;5020240;28;20294;-61
2022/06/18 01:24:39;;;;;;;5.30;5.00;;;;;;;14.01;100.00;97664.44;5044584;28;20250;-62
2022/06/18 01:27:09;;;;;;;6.23;5.83;;;;;;;13.98;100.00;97662.97;5038450;28;20443;-63
2022/06/18 01:29:38;;;;;;;7.33;6.63;;;;;;;13.95;100.00;97654.56;5040301;28;20312;-60
2022/06/18 01:32:08;;;;;;;5.87;5.40;;;;;;;13.83;100.00;97656.91;4997601;28;20430;-61
2022/06/18 01:34:38;;;;;;;5.37;5.07;;;;;;;13.79;100.00;97661.00;4998601;28;20461;-60
2022/06/18 01:37:07;;;;;;;5.60;5.17;;;;;;;13.71;100.00;97659.28;5035291;28;20690;-64
2022/06/18 01:39:38;;;;;;;5.53;5.13;;;;;;;13.75;100.00;97645.41;5015056;28;20222;-62
2022/06/18 01:42:09;;;;;;;5.67;5.30;;;;;;;13.68;100.00;97654.34;5041375;28;20239;-57
2022/06/18 01:44:46;;;;;;;5.57;5.17;;;;;;;13.62;100.00;97641.81;5027207;28;20281;-61
2022/06/18 01:47:16;;;;;;;5.10;4.80;;;;;;;13.58;100.00;97641.34;5041959;28;20224;-62
2022/06/18 01:49:49;;;;;;;6.10;5.70;;;;;;;13.49;100.00;97640.69;4999050;28;20279;-63
2022/06/18 01:52:20;;;;;;;6.03;5.53;;;;;;;13.60;100.00;97647.31;5040681;28;20293;-61
2022/06/18 01:54:54;;;;;;;9.93;5.43;;;;;;;13.48;100.00;97636.38;5044481;28;20258;-63
2022/06/18 01:57:25;;;;;;;5.30;5.00;;;;;;;13.43;100.00;97633.44;5040052;28;20268;-64
2022/06/18 01:59:55;;;;;;;5.87;5.10;;;;;;;13.40;100.00;97631.13;5023449;28;20462;-63
2022/06/18 02:02:23;;;;;;;6.10;5.60;;;;;;;13.41;100.00;97627.44;5038262;28;20625;-61
2022/06/18 02:04:51;;;;;;;5.87;5.37;;;;;;;13.40;100.00;97628.47;5001591;28;20246;-62
2022/06/18 02:07:20;;;;;;;5.23;4.83;;;;;;;13.25;100.00;97620.56;5041738;28;20521;-61
2022/06/18 02:09:53;;;;;;;5.47;4.97;;;;;;;13.24;100.00;97614.41;5043122;28;20203;-64
2022/06/18 02:12:38;;;;;;;5.53;5.23;;;;;;;13.16;100.00;97614.56;5040356;28;20602;-62
2022/06/18 02:15:10;;;;;;;5.20;4.80;;;;;;;13.17;100.00;97611.69;5020282;28;20418;-60
2022/06/18 02:17:39;;;;;;;9.00;5.47;;;;;;;13.36;100.00;97605.91;5046670;28;20386;-61
2022/06/18 02:20:12;;;;;;;5.17;4.90;;;;;;;13.35;100.00;97601.59;4991315;28;20792;-60
2022/06/18 02:22:43;;;;;;;5.97;5.40;;;;;;;13.16;100.00;97602.06;5047067;28;21403;-58
2022/06/18 02:25:14;;;;;;;5.43;5.13;;;;;;;13.08;100.00;97604.84;5037769;28;20711;-59
2022/06/18 02:27:43;;;;;;;5.27;4.87;;;;;;;13.00;100.00;97610.31;5039691;28;21001;-59
2022/06/18 02:30:16;;;;;;;7.27;5.37;;;;;;;13.02;100.00;97603.75;5016280;28;20461;-59
2022/06/18 02:32:50;;;;;;;5.70;5.33;;;;;;;13.05;100.00;97613.22;5040080;28;20291;-62
2022/06/18 02:35:18;;;;;;;5.30;4.93;;;;;;;13.12;100.00;97608.78;4997219;28;20865;-60
2022/06/18 02:37:46;;;;;;;7.80;5.20;;;;;;;13.00;100.00;97607.63;5041149;28;20278;-61
2022/06/18 02:40:18;;;;;;;5.67;5.27;;;;;;;12.87;100.00;97611.78;5041814;28;20391;-60
2022/06/18 02:42:47;;;;;;;4.90;4.57;;;;;;;12.72;100.00;97619.84;5044845;28;20272;-62
2022/06/18 02:45:16;;;;;;;5.07;4.77;;;;;;;12.75;100.00;97615.97;5039159;28;20302;-57
2022/06/18 02:47:45;;;;;;;5.30;4.80;;;;;;;12.70;100.00;97613.03;5024571;28;20264;-61
2022/06/18 02:50:15;;;;;;;5.23;4.83;;;;;;;12.62;100.00;97626.44;5040873;28;20307;-61
2022/06/18 02:52:46;;;;;;;5.90;5.50;;;;;;;12.56;100.00;97625.34;5002588;28;20310;-62
2022/06/18 02:55:23;;;;;;;6.10;5.80;;;;;;;12.60;100.00;97629.28;5037502;28;20459;-57
2022/06/18 02:57:55;;;;;;;5.47;4.97;;;;;;;12.63;100.00;97625.44;5038831;28;20707;-61
2022/06/18 03:00:23;;;;;;;5.90;5.57;;;;;;;12.62;100.00;97613.16;5042459;28;20229;-64
2022/06/18 03:02:51;;;;;;;5.80;5.50;;;;;;;12.63;100.00;97614.81;5026303;28;20479;-60
2022/06/18 03:05:22;;;;;;;6.17;5.67;;;;;;;12.65;100.00;97618.09;5042327;28;20894;-57
2022/06/18 03:07:50;;;;;;;5.90;5.40;;;;;;;12.62;100.00;97616.63;4998321;28;20268;-60
2022/06/18 03:13:07;;;;;;;6.00;5.70;;;;;;;12.69;100.00;97611.41;5038840;28;20302;-60
2022/06/18 03:15:35;;;;;;;6.20;5.80;;;;;;;12.62;100.00;97627.25;5043212;28;20234;-60
2022/06/18 03:18:05;;;;;;;6.40;6.00;;;;;;;12.53;100.00;97613.28;5025447;28;20211;-60
2022/06/18 03:20:46;;;;;;;5.73;5.33;;;;;;;12.58;100.00;97610.03;5042865;28;20294;-64
2022/06/18 03:23:16;;;;;;;6.50;5.90;;;;;;;12.68;100.00;97607.09;4992620;28;20682;-61
2022/06/18 03:25:47;;;;;;;6.57;6.07;;;;;;;12.57;100.00;97611.03;5044682;28;20203;-60
2022/06/18 03:28:15;;;;;;;7.00;6.50;;;;;;;12.53;100.00;97607.97;5020954;28;20210;-59
2022/06/18 03:30:43;;;;;;;6.00;5.60;;;;;;;12.57;100.00;97611.03;5045207;28;20305;-62
2022/06/18 03:33:12;;;;;;;6.57;6.17;;;;;;;12.72;100.00;97609.19;5017577;28;20237;-60
2022/06/18 03:35:43;;;;;;;6.13;5.73;;;;;;;12.73;100.00;97610.84;5036770;28;20492;-59
2022/06/18 03:38:11;;;;;;;6.07;5.63;;;;;;;12.73;100.00;97618.81;5015831;28;20211;-63
2022/06/18 03:40:40;;;;;;;6.20;5.70;;;;;;;12.78;100.00;97617.44;4976828;28;20801;-60
2022/06/18 03:43:10;;;;;;;6.23;5.73;;;;;;;12.80;100.00;97618.88;5027299;28;20237;-63
2022/06/18 03:45:42;;;;;;;6.33;5.93;;;;;;;12.81;100.00;97617.88;5038006;28;20683;-60
2022/06/18 03:48:18;;;;;;;6.23;5.80;;;;;;;12.94;100.00;97613.72;5024708;28;20207;-63
2022/06/18 03:50:46;;;;;;;5.70;5.37;;;;;;;13.01;100.00;97604.78;5032366;28;20268;-60
2022/06/18 03:53:14;;;;;;;7.20;6.60;;;;;;;13.26;100.00;97609.72;5042828;28;20264;-63
2022/06/18 03:55:48;;;;;;;6.43;5.93;;;;;;;13.21;100.00;97612.16;5030952;28;20304;-60
2022/06/18 03:58:18;;;;;;;6.30;5.67;;;;;;;13.24;100.00;97616.25;4993913;28;20246;-62
2022/06/18 04:00:46;;;;;;;7.20;5.37;;;;;;;13.23;100.00;97610.13;5030957;28;20240;-56
2022/06/18 04:03:14;;;;;;;6.13;5.73;;;;;;;13.30;100.00;97607.53;5020826;28;20719;-60
2022/06/18 04:05:43;;;;;;;6.20;5.70;;;;;;;13.44;100.00;97611.13;5038188;28;20213;-60
2022/06/18 04:08:13;;;;;;;5.97;5.57;;;;;;;13.48;100.00;97612.41;5043398;28;20230;-60
2022/06/18 04:10:41;;;;;;;5.57;5.27;;;;;;;13.57;100.00;97605.94;5040683;28;20233;-59
2022/06/18 04:13:10;;;;;;;7.10;6.40;;;;;;;13.63;100.00;97599.00;4995936;28;21078;-61
2022/06/18 04:15:39;;;;;;;6.17;5.87;;;;;;;13.77;100.00;97607.91;5037523;28;20305;-61
2022/06/18 04:18:08;;;;;;;6.23;5.83;;;;;;;13.75;100.00;97607.28;5017476;28;20239;-63
2022/06/18 04:20:38;;;;;;;5.97;5.60;;;;;;;13.84;100.00;97605.31;5031704;28;20195;-60
2022/06/18 04:23:06;;;;;;;6.23;5.83;;;;;;;14.05;100.00;97601.75;5039981;28;20207;-60
2022/06/18 04:25:34;;;;;;;6.13;5.73;;;;;;;14.19;100.00;97599.97;5036979;28;20292;-57
2022/06/18 04:28:03;;;;;;;7.43;6.83;;;;;;;14.22;100.00;97610.25;4998182;28;22446;-60
2022/06/18 04:30:32;;;;;;;6.57;6.10;;;;;;;14.47;100.00;97599.91;5037766;28;20378;-56
2022/06/18 04:33:02;;;;;;;6.50;6.00;;;;;;;14.57;100.00;97601.38;5038622;28;20270;-62
2022/06/18 04:35:30;;;;;;;6.60;6.00;;;;;;;14.70;100.00;97590.78;5025551;28;20222;-61
2022/06/18 04:37:59;;;;;;;6.93;6.43;;;;;;;14.82;100.00;97591.03;5040748;28;20378;-62
2022/06/18 04:40:32;;;;;;;7.70;7.10;;;;;;;14.71;100.00;97597.78;5043546;28;20931;-61
2022/06/18 04:43:21;;;;;;;7.00;6.50;;;;;;;14.95;100.00;97598.22;5039675;28;20238;-64
2022/06/18 04:45:49;;;;;;;6.97;6.47;;;;;;;15.06;100.00;97594.16;4991537;28;20805;-62
2022/06/18 04:48:18;;;;;;;7.50;6.80;;;;;;;15.14;100.00;97598.47;5038051;28;20283;-66
2022/06/18 04:50:47;;;;;;;6.37;5.97;;;;;;;15.31;100.00;97597.06;4999695;28;20980;-62
2022/06/18 04:53:16;;;;;;;6.53;5.93;;;;;;;15.54;100.00;97603.03;5040076;28;20737;-60
2022/06/18 04:55:44;;;;;;;7.37;6.87;;;;;;;15.45;100.00;97605.09;5041698;28;20199;-63
2022/06/18 04:58:12;;;;;;;6.60;6.00;;;;;;;15.77;100.00;97597.28;5044139;28;20292;-63
2022/06/18 05:00:42;;;;;;;6.60;6.10;;;;;;;15.72;100.00;97602.38;4996328;28;20295;-63
2022/06/18 05:03:15;;;;;;;5.93;5.57;;;;;;;15.95;100.00;97607.34;5041455;28;20289;-63
2022/06/18 05:05:44;;;;;;;6.70;6.10;;;;;;;15.99;100.00;97605.06;4998825;28;20214;-64
2022/06/18 05:08:13;;;;;;;6.67;6.27;;;;;;;16.20;100.00;97610.19;5019383;28;20308;-61
2022/06/18 05:10:41;;;;;;;6.40;6.00;;;;;;;16.11;100.00;97598.06;5048839;28;20310;-64
2022/06/18 05:13:09;;;;;;;6.60;6.10;;;;;;;16.17;100.00;97610.59;5036439;28;20449;-55
2022/06/18 05:15:38;;;;;;;6.00;5.60;;;;;;;16.27;100.00;97610.13;4976274;28;20221;-60
2022/06/18 05:18:07;;;;;;;6.40;5.90;;;;;;;16.43;100.00;97605.38;5044458;28;20274;-63
2022/06/18 05:20:35;;;;;;;6.23;5.73;;;;;;;16.68;100.00;97607.34;5026008;28;20397;-61
2022/06/18 05:23:04;;;;;;;5.50;5.20;;;;;;;16.91;100.00;97612.97;5040090;28;20235;-61
2022/06/18 05:25:32;;;;;;;6.07;5.67;;;;;;;16.94;100.00;97611.72;5039624;28;20419;-62
2022/06/18 05:28:01;;;;;;;5.57;5.10;;;;;;;17.05;100.00;97620.97;5041575;28;20226;-64
2022/06/18 05:30:29;;;;;;;5.97;5.60;;;;;;;17.27;100.00;97613.41;4984158;28;20215;-59
2022/06/18 05:32:57;;;;;;;6.47;5.57;;;;;;;17.29;100.00;97614.03;5034989;28;20638;-59
2022/06/18 05:35:26;;;;;;;5.13;4.83;;;;;;;17.44;100.00;97607.53;5036138;28;20299;-62
2022/06/18 05:37:54;;;;;;;5.50;5.00;;;;;;;17.56;100.00;97611.13;5035084;28;20501;-64
2022/06/18 05:40:23;;;;;;;5.47;4.97;;;;;;;17.68;100.00;97610.44;5038094;28;20346;-62
2022/06/18 05:42:53;;;;;;;5.37;4.97;;;;;;;17.84;100.00;97612.53;5040299;28;20460;-57
2022/06/18 05:45:21;;;;;;;5.60;5.20;;;;;;;17.93;100.00;97603.16;5039334;28;20306;-64
2022/06/18 05:47:50;;;;;;;5.37;4.97;;;;;;;18.05;100.00;97610.53;4956022;28;20212;-63
2022/06/18 05:50:19;;;;;;;5.60;5.10;;;;;;;18.20;100.00;97608.28;5039485;28;20272;-63
2022/06/18 05:52:47;;;;;;;5.17;4.87;;;;;;;18.33;100.00;97606.50;5042033;28;20206;-63
2022/06/18 05:55:23;;;;;;;5.27;4.97;;;;;;;18.48;100.00;97598.06;5021325;28;20230;-62
2022/06/18 05:57:53;;;;;;;5.33;4.97;;;;;;;18.66;100.00;97602.59;5038369;28;20664;-63
2022/06/18 06:00:23;;;;;;;5.13;4.83;;;;;;;19.02;100.00;97592.88;5031131;28;20276;-62
2022/06/18 06:02:51;;;;;;;6.17;5.50;;;;;;;19.07;100.00;97593.00;5038953;28;20222;-65
2022/06/18 06:05:19;;;;;;;5.27;4.90;;;;;;;19.17;100.00;97599.69;4980406;28;21013;-62
2022/06/18 06:07:49;;;;;;;4.70;4.40;;;;;;;19.21;100.00;97590.13;5040829;28;20521;-64
2022/06/18 06:13:09;;;;;;;5.40;4.90;;;;;;;19.48;100.00;97582.47;5027088;28;20303;-64
2022/06/18 06:15:38;;;;;;;5.03;4.63;;;;;;;19.60;100.00;97582.47;5028323;28;20221;-64
2022/06/18 06:18:07;;;;;;;5.27;4.97;;;;;;;19.84;100.00;97587.03;5039822;28;20303;-65
2022/06/18 06:20:39;;;;;;;5.27;4.90;;;;;;;19.86;100.00;97580.38;4994906;28;20208;-63
2022/06/18 06:23:07;;;;;;;4.77;4.37;;;;;;;19.90;100.00;97578.91;5032496;28;20300;-63
2022/06/18 06:25:36;;;;;;;4.87;4.47;;;;;;;20.05;100.00;97583.78;5043514;28;20322;-63
2022/06/18 06:28:05;;;;;;;5.10;4.70;;;;;;;20.18;100.00;97584.59;5022989;28;20866;-63
2022/06/18 06:30:35;;;;;;;4.60;4.30;;;;;;;20.26;100.00;97586.91;5042585;28;20261;-66
2022/06/18 06:33:03;;;;;;;4.63;4.33;;;;;;;20.38;100.00;97587.69;5035580;28;20896;-65
2022/06/18 06:35:31;;;;;;;5.33;4.93;;;;;;;20.61;100.00;97579.78;4997780;28;20306;-65
2022/06/18 06:37:59;;;;;;;5.23;4.40;;;;;;;20.85;100.00;97580.56;5040286;28;20454;-64
2022/06/18 06:40:28;;;;;;;5.07;4.67;;;;;;;20.69;100.00;97576.75;5041750;28;20520;-65
2022/06/18 06:42:59;;;;;;;4.70;4.30;;;;;;;20.94;100.00;97579.13;5023158;28;20406;-63
2022/06/18 06:45:30;;;;;;;4.77;4.37;;;;;;;21.11;100.00;97584.53;5041432;28;20297;-64
2022/06/18 06:47:59;;;;;;;5.00;4.60;;;;;;;21.15;100.00;97582.16;5041391;28;20887;-64
2022/06/18 06:50:29;;;;;;;5.33;4.77;;;;;;;20.86;100.00;97582.22;5042675;28;20207;-65
2022/06/18 06:52:57;;;;;;;4.70;4.33;;;;;;;21.07;100.00;97583.41;4995420;28;20481;-66
2022/06/18 06:58:14;;;;;;;4.70;4.30;;;;;;;21.30;100.00;97580.81;5019627;28;20786;-64
2022/06/18 07:00:45;;;;;;;4.60;4.37;;;;;;;21.58;100.00;97562.91;5039651;28;20475;-64
2022/06/18 07:03:19;;;;;;;4.47;4.20;;;;;;;21.72;100.00;97569.63;5036792;28;20700;-64
2022/06/18 07:05:47;;;;;;;4.53;4.13;;;;;;;21.78;100.00;97574.03;5000172;28;20306;-64
2022/06/18 07:08:16;;;;;;;4.23;3.83;;;;;;;21.81;99.45;97570.03;5029489;28;20207;-64
2022/06/18 07:10:44;;;;;;;4.17;3.97;;;;;;;21.86;91.67;97570.13;5013415;28;21207;-64
2022/06/18 07:13:12;;;;;;;4.03;3.73;;;;;;;22.05;88.68;97567.13;5029849;28;20199;-64
2022/06/18 07:15:40;;;;;;;4.60;4.10;;;;;;;21.91;84.84;97569.34;5029404;28;20946;-64
2022/06/18 07:18:15;;;;;;;3.77;3.53;;;;;;;22.05;86.92;97559.03;5036073;28;20223;-63
2022/06/18 07:20:43;;;;;;;3.73;3.50;;;;;;;22.21;87.00;97566.28;5042633;28;20226;-65
2022/06/18 07:23:11;;;;;;;4.00;3.70;;;;;;;22.24;90.01;97562.25;4998608;28;20207;-64
2022/06/18 07:25:40;;;;;;;4.53;4.13;;;;;;;22.10;92.08;97561.78;5038111;28;20774;-65
2022/06/18 07:28:08;;;;;;;4.07;3.87;;;;;;;22.30;94.40;97563.94;5038335;28;20295;-64
2022/06/18 07:30:37;;;;;;;3.70;3.50;;;;;;;22.36;92.24;97565.66;5021002;28;20353;-63
2022/06/18 07:33:06;;;;;;;4.47;4.17;;;;;;;22.45;88.04;97557.09;5040519;28;20212;-67
2022/06/18 07:35:36;;;;;;;4.17;3.87;;;;;;;22.44;91.15;97553.56;5035432;28;20207;-66
2022/06/18 07:38:05;;;;;;;4.13;3.83;;;;;;;22.59;88.11;97549.47;5001196;28;20231;-67
2022/06/18 07:40:44;;;;;;;4.33;4.00;;;;;;;22.66;87.94;97553.59;5039441;28;20498;-64
2022/06/18 07:43:20;;;;;;;4.30;4.00;;;;;;;22.62;88.80;97547.06;5037394;28;20819;-62
2022/06/18 07:45:48;;;;;;;4.20;3.87;;;;;;;22.53;91.80;97560.19;5040682;28;20233;-62
2022/06/18 07:48:17;;;;;;;4.40;4.10;;;;;;;22.60;88.03;97549.19;5040191;28;20198;-64
2022/06/18 07:50:47;;;;;;;10.93;4.83;;;;;;;22.79;86.46;97548.88;5038136;28;20206;-65
2022/06/18 07:53:17;;;;;;;4.10;3.90;;;;;;;22.85;87.34;97547.84;5017664;28;20231;-65
2022/06/18 07:55:46;;;;;;;3.93;3.73;;;;;;;22.79;87.59;97549.66;4974622;28;20219;-64
2022/06/18 07:58:15;;;;;;;4.23;4.03;;;;;;;22.72;84.83;97543.66;5037822;28;20834;-65
2022/06/18 08:00:43;;;;;;;6.50;5.97;;;;;;;22.96;93.20;97544.16;5022648;28;20199;-64
2022/06/18 08:03:13;;;;;;;5.13;4.70;;;;;;;22.95;86.88;97545.25;5016722;28;20668;-64
2022/06/18 08:05:42;;;;;;;4.17;3.80;;;;;;;22.97;88.24;97542.28;5035052;28;20294;-65
2022/06/18 08:08:13;;;;;;;4.23;3.70;;;;;;;22.88;94.94;97543.81;5026305;28;20196;-60
2022/06/18 08:11:02;;;;;;;4.63;4.33;;;;;;;23.25;93.56;97548.50;4997367;28;20207;-59
2022/06/18 08:13:30;;;;;;;5.77;3.87;;;;;;;23.05;88.10;97547.22;5033041;28;20461;-65
2022/06/18 08:15:59;;;;;;;4.73;4.23;;;;;;;23.25;90.58;97543.09;5041647;28;20207;-64
2022/06/18 08:18:27;;;;;;;4.13;3.80;;;;;;;23.41;89.00;97538.63;5026094;28;20222;-66
2022/06/18 08:20:59;;;;;;;4.33;4.03;;;;;;;23.40;92.29;97535.13;5040578;28;20259;-64
2022/06/18 08:23:28;;;;;;;4.33;3.93;;;;;;;23.40;88.93;97540.53;5038828;28;20269;-64
2022/06/18 08:25:57;;;;;;;5.30;3.90;;;;;;;23.67;90.41;97530.69;5026485;28;20223;-64
2022/06/18 08:28:25;;;;;;;4.83;4.53;;;;;;;23.92;87.64;97542.75;5010471;28;20323;-63
2022/06/18 08:30:53;;;;;;;4.50;4.20;;;;;;;24.10;90.58;97531.50;5042751;28;20316;-65
2022/06/18 08:33:21;;;;;;;4.17;3.87;;;;;;;24.08;83.99;97540.97;5012345;28;21018;-66
2022/06/18 08:35:51;;;;;;;5.57;5.07;;;;;;;23.97;84.13;97532.75;5047576;28;20238;-64
2022/06/18 08:38:20;;;;;;;4.30;4.00;;;;;;;24.19;84.48;97537.22;5018526;28;20419;-65
2022/06/18 08:40:58;;;;;;;4.00;3.70;;;;;;;24.06;84.02;97533.09;5025384;28;20393;-66
2022/06/18 08:44:06;;;;;;;4.20;3.90;;;;;;;24.41;81.69;97534.34;4999394;28;20330;-64
2022/06/18 08:46:41;;;;;;;4.00;3.80;;;;;;;24.21;80.37;97532.38;5005970;28;20301;-63
2022/06/18 08:49:21;;;;;;;4.00;3.70;;;;;;;24.11;79.25;97524.22;5035545;28;20202;-63
2022/06/18 08:51:58;;;;;;;4.47;4.03;;;;;;;24.23;80.15;97516.66;5025850;28;20903;-63
2022/06/18 08:54:44;;;;;;;4.17;3.70;;;;;;;24.43;78.01;97515.09;5032863;28;20218;-61
2022/06/18 08:57:19;;;;;;;6.00;4.10;;;;;;;24.56;80.61;97513.78;5026001;28;20879;-60
2022/06/18 08:59:59;;;;;;;4.50;4.20;;;;;;;24.75;79.78;97502.50;4980513;28;20826;-62
2022/06/18 09:02:31;;;;;;;4.90;4.53;;;;;;;24.69;74.98;97505.16;5039778;28;20199;-59
2022/06/18 09:05:26;;;;;;;4.17;3.77;;;;;;;24.88;76.11;97501.97;5040618;28;20265;-60
2022/06/18 09:08:07;;;;;;;4.50;4.20;;;;;;;25.03;76.11;97506.56;5028014;28;20293;-61
2022/06/18 09:10:45;;;;;;;3.80;3.50;;;;;;;25.15;77.29;97500.88;5034966;28;20227;-61
2022/06/18 09:13:18;;;;;;;4.23;3.93;;;;;;;25.06;75.73;97499.81;4999030;28;20402;-64
2022/06/18 09:15:48;;;;;;;4.13;3.83;;;;;;;25.17;72.23;97487.06;5024458;28;20399;-63
2022/06/18 09:18:20;;;;;;;4.63;4.30;;;;;;;25.18;74.79;97484.09;5030129;28;20294;-63
2022/06/18 09:20:52;;;;;;;3.80;3.50;;;;;;;25.51;72.96;97481.09;5042099;28;20215;-63
2022/06/18 09:23:25;;;;;;;4.17;3.87;;;;;;;25.52;69.83;97480.81;5026052;28;20251;-61
2022/06/18 09:25:55;;;;;;;4.33;4.00;;;;;;;25.49;66.20;97477.84;5034047;28;20421;-63
2022/06/18 09:28:27;;;;;;;3.77;3.47;;;;;;;25.44;70.83;97476.72;5028236;28;20451;-62
2022/06/18 09:30:59;;;;;;;4.30;3.90;;;;;;;25.66;70.41;97478.34;4998719;28;20331;-63
2022/06/18 09:33:33;;;;;;;3.77;3.53;;;;;;;25.75;65.21;97469.63;5039558;28;20681;-61
2022/06/18 09:36:04;;;;;;;6.33;4.50;;;;;;;25.78;72.65;97466.38;5038762;28;20358;-64
2022/06/18 09:38:36;;;;;;;4.10;3.80;;;;;;;25.87;68.22;97462.00;5029287;28;20210;-64
2022/06/18 09:41:06;;;;;;;3.70;3.60;;;;;;;25.96;67.92;97468.50;5039747;28;20731;-65
2022/06/18 09:43:42;;;;;;;4.40;4.00;;;;;;;25.98;63.77;97474.44;5007073;28;20262;-64
2022/06/18 09:46:17;;;;;;;5.50;3.90;;;;;;;26.25;66.15;97462.41;5024150;28;20694;-63
2022/06/18 09:48:45;;;;;;;4.70;4.30;;;;;;;26.36;61.77;97456.94;5025138;28;20396;-64
2022/06/18 09:51:21;;;;;;;17.58;9.52;;;;;;;26.28;64.84;97456.41;5025877;28;20538;-64
2022/06/18 09:53:50;;;;;;;5.15;4.72;;;;;;;26.49;62.37;97456.28;5019016;28;21344;-64
2022/06/18 09:56:23;;;;;;;7.30;4.73;;;;;;;26.34;58.26;97448.25;5038792;28;20827;-66
2022/06/18 09:58:56;;;;;;;4.03;3.60;;;;;;;26.48;62.67;97448.41;5026479;28;20525;-65
2022/06/18 10:01:38;;;;;;;4.60;4.00;;;;;;;26.46;63.49;97448.72;4990379;28;20332;-65
2022/06/18 10:06:55;;;;;;;3.93;3.73;;;;;;;26.19;62.98;97451.84;5032887;28;20208;-64
2022/06/18 10:09:42;;;;;;;3.93;3.60;;;;;;;26.38;67.61;97447.38;5032007;28;20273;-65
2022/06/18 10:12:17;;;;;;;3.73;3.53;;;;;;;26.55;62.21;97448.94;5022093;28;20243;-66
2022/06/18 10:14:48;;;;;;;3.97;3.70;;;;;;;26.56;62.50;97445.91;5039672;28;20230;-66
2022/06/18 10:17:24;;;;;;;3.63;3.43;;;;;;;26.58;64.60;97449.16;4997603;28;20756;-66
2022/06/18 10:20:01;;;;;;;3.93;3.70;;;;;;;26.82;62.31;97448.47;5040125;28;20687;-64
2022/06/18 10:22:36;;;;;;;3.03;2.93;;;;;;;26.97;59.38;97444.84;5039466;28;20208;-63
2022/06/18 10:25:12;;;;;;;3.20;3.00;;;;;;;27.07;53.75;97433.03;5029163;28;20342;-65
2022/06/18 10:27:46;;;;;;;3.40;3.10;;;;;;;27.16;56.90;97428.63;5043565;28;20384;-66
2022/06/18 10:30:21;;;;;;;3.27;3.17;;;;;;;27.32;52.19;97428.47;5037099;28;20938;-65
2022/06/18 10:32:57;;;;;;;2.80;2.70;;;;;;;27.49;45.31;97427.22;5021676;28;20598;-65
2022/06/18 10:35:38;;;;;;;4.63;3.07;;;;;;;27.62;43.09;97426.56;5037188;28;20288;-65
2022/06/18 10:38:16;;;;;;;2.63;2.47;;;;;;;27.58;41.25;97423.59;5026118;28;21051;-65
2022/06/18 10:40:49;;;;;;;4.00;2.97;;;;;;;27.42;42.36;97427.56;5030336;28;20257;-64
2022/06/18 10:43:28;;;;;;;4.23;3.10;;;;;;;27.76;41.90;97415.78;5031655;28;20248;-66
2022/06/18 10:46:01;;;;;;;2.70;2.60;;;;;;;27.86;41.42;97421.09;5027099;28;21683;-65
2022/06/18 10:48:32;;;;;;;2.97;2.50;;;;;;;28.37;42.70;97416.06;5035055;28;20293;-65
2022/06/18 10:51:02;;;;;;;3.43;3.23;;;;;;;28.48;45.24;97413.22;5020378;28;20306;-66
2022/06/18 10:53:36;;;;;;;3.60;3.30;;;;;;;28.23;43.37;97407.84;5041152;28;20474;-65
2022/06/18 10:56:06;;;;;;;3.97;3.67;;;;;;;28.29;40.52;97408.56;5027875;28;21047;-66
2022/06/18 10:58:34;;;;;;;2.43;2.30;;;;;;;28.35;43.68;97407.38;5028451;28;20327;-64
2022/06/18 11:01:12;;;;;;;3.60;3.40;;;;;;;28.21;46.09;97410.03;5041755;28;20448;-64
2022/06/18 11:03:40;;;;;;;4.40;4.00;;;;;;;27.82;51.97;97406.44;5044323;28;20308;-62
2022/06/18 11:06:12;;;;;;;3.87;3.57;;;;;;;27.87;46.98;97405.56;5002353;28;20217;-61
2022/06/18 11:08:50;;;;;;;2.67;2.57;;;;;;;27.73;46.55;97400.03;5037040;28;20648;-62
2022/06/18 11:11:22;;;;;;;3.40;3.20;;;;;;;27.91;48.50;97409.34;5025215;28;20685;-64
2022/06/18 11:13:51;;;;;;;4.33;3.90;;;;;;;27.86;50.72;97406.69;5038028;28;20560;-62
2022/06/18 11:16:22;;;;;;;4.00;3.80;;;;;;;27.92;52.06;97396.50;5041324;28;20212;-63
2022/06/18 11:18:53;;;;;;;4.37;3.30;;;;;;;27.87;45.32;97400.13;5036176;28;20201;-65
2022/06/18 11:21:30;;;;;;;3.20;2.90;;;;;;;27.91;49.01;97397.63;5005096;28;20217;-65
2022/06/18 11:24:04;;;;;;;3.83;3.53;;;;;;;28.02;51.13;97405.38;5039264;28;20620;-65
2022/06/18 11:26:39;;;;;;;3.50;3.30;;;;;;;28.13;47.58;97397.06;5028986;28;20200;-63
2022/06/18 11:29:13;;;;;;;3.67;3.47;;;;;;;28.31;47.80;97401.72;5035314;28;20699;-64
2022/06/18 11:31:46;;;;;;;3.37;3.17;;;;;;;28.43;50.93;97401.28;5038011;28;20295;-62
2022/06/18 11:34:22;;;;;;;4.88;4.45;;;;;;;28.57;49.76;97387.69;5040580;28;20533;-63
2022/06/18 11:36:53;;;;;;;2.93;2.83;;;;;;;28.34;48.70;97386.69;4997796;28;20609;-65
2022/06/18 11:39:33;;;;;;;4.17;3.80;;;;;;;28.44;48.82;97383.00;5042511;28;20663;-64
2022/06/18 11:42:08;;;;;;;4.30;3.13;;;;;;;28.59;50.73;97382.75;5040665;28;20387;-61
2022/06/18 11:44:40;;;;;;;3.30;3.10;;;;;;;28.77;48.17;97376.75;5024949;28;20830;-62
2022/06/18 11:47:15;;;;;;;4.13;2.80;;;;;;;28.85;45.55;97373.41;5038926;28;20698;-61
2022/06/18 11:49:49;;;;;;;3.17;2.93;;;;;;;29.14;43.16;97370.41;5034972;28;20291;-62
2022/06/18 11:52:21;;;;;;;2.83;2.73;;;;;;;29.35;45.23;97372.75;5002027;28;20762;-62
2022/06/18 11:54:57;;;;;;;3.67;3.37;;;;;;;29.44;39.77;97370.97;5037667;28;20227;-62
2022/06/18 11:57:29;;;;;;;4.30;3.57;;;;;;;29.55;37.88;97359.84;5038839;28;20281;-63
2022/06/18 12:00:04;;;;;;;2.80;2.70;;;;;;;29.45;37.50;97364.41;5023701;28;20617;-65